Wonewoc, Wisconsin
Current Conditions -  °F | °C
As of 2:55 AM on Wednesday 22 Oct 2014 (Local Time) from KC35 Reporting Station
Clear Clear  
Wind Chill: 30°   Ceiling: Unl
Heat Index: 30°   Visibility: 10mi
Dew Point: 30°   Wind: 0mph
Humidity: 98%   Direction: NA
Pressure: 30.3"   Gusts: NA
Location:  43.65°N, 90.22°W
Report Text: KC35 220755Z AUTO 00000KT 10SM CLR M01/M01 A3030 RMK AO2 T10101013
Loading
Personal Weather Stations






























Interactive Weather Map
Tropical Storm Tracking
New forecast layout! Learn more

10-Day Weather Forecast

Advertisements
Track Severe Weather on mobile